createdAt,value
2022-11-29T00:01:05.614Z,99440.85
2022-11-29T00:03:32.889Z,99440.62
2022-11-29T00:06:35.593Z,99442.83
2022-11-29T00:09:06.484Z,99444.19
2022-11-29T00:11:54.221Z,99442.94
2022-11-29T00:14:21.420Z,99441.91
2022-11-29T00:16:56.241Z,99447.02
2022-11-29T00:19:23.254Z,99443.52
2022-11-29T00:21:50.265Z,99449.39
2022-11-29T00:24:17.327Z,99448.30
2022-11-29T00:26:44.253Z,99442.71
2022-11-29T00:29:12.813Z,99442.16
2022-11-29T00:31:40.082Z,99440.67
2022-11-29T00:34:07.178Z,99437.35
2022-11-29T00:36:34.738Z,99431.98
2022-11-29T00:39:02.171Z,99436.95
2022-11-29T00:41:29.422Z,99437.44
2022-11-29T00:43:56.404Z,99435.55
2022-11-29T00:46:23.918Z,99432.14
2022-11-29T00:48:50.929Z,99429.88
2022-11-29T00:51:17.842Z,99433.00
2022-11-29T00:53:44.803Z,99431.58
2022-11-29T00:56:12.011Z,99432.70
2022-11-29T00:58:39.088Z,99429.48
2022-11-29T01:01:06.180Z,99428.17
2022-11-29T01:04:08.148Z,99423.39
2022-11-29T01:06:37.332Z,99422.80
2022-11-29T01:09:05.217Z,99419.55
2022-11-29T01:11:32.241Z,99420.21
2022-11-29T01:14:00.557Z,99419.25
2022-11-29T01:16:28.852Z,99412.85
2022-11-29T01:18:56.468Z,99408.67
2022-11-29T01:21:24.244Z,99406.25
2022-11-29T01:23:52.068Z,99401.49
2022-11-29T01:26:21.595Z,99401.67
2022-11-29T01:28:49.538Z,99401.05
2022-11-29T01:31:22.610Z,99399.12
2022-11-29T01:33:52.436Z,99394.77
2022-11-29T01:36:19.463Z,99397.48
2022-11-29T01:38:46.643Z,99391.91
2022-11-29T01:41:20.524Z,99389.17
2022-11-29T01:44:07.353Z,99389.81
2022-11-29T01:46:36.233Z,99388.70
2022-11-29T01:49:16.431Z,99390.31
2022-11-29T01:51:50.495Z,99390.36
2022-11-29T01:54:18.206Z,99388.88
2022-11-29T01:56:45.551Z,99389.01
2022-11-29T01:59:14.613Z,99387.06
2022-11-29T02:01:42.317Z,99385.89
2022-11-29T02:04:09.377Z,99384.41
2022-11-29T02:06:36.376Z,99381.80
2022-11-29T02:09:03.895Z,99387.13
2022-11-29T02:11:31.044Z,99387.52
2022-11-29T02:13:57.972Z,99387.52
2022-11-29T02:16:28.483Z,99390.42
2022-11-29T02:18:58.970Z,99390.05
2022-11-29T02:21:32.523Z,99392.02
2022-11-29T02:24:15.005Z,99395.00
2022-11-29T02:27:13.017Z,99396.39
2022-11-29T02:29:58.700Z,99396.35
2022-11-29T02:32:44.405Z,99395.56
2022-11-29T02:35:45.973Z,99388.65
2022-11-29T02:38:13.036Z,99392.02
2022-11-29T02:41:07.944Z,99391.41
2022-11-29T02:44:11.233Z,99384.20
2022-11-29T02:47:12.624Z,99387.70
2022-11-29T02:49:51.532Z,99388.93
2022-11-29T02:52:18.532Z,99386.09
2022-11-29T02:55:06.273Z,99390.67
2022-11-29T02:57:48.373Z,99384.02
2022-11-29T03:00:16.564Z,99385.20
2022-11-29T03:02:51.715Z,99386.20
2022-11-29T03:05:28.330Z,99390.98
2022-11-29T03:07:57.963Z,99391.39
2022-11-29T03:10:34.835Z,99392.26
2022-11-29T03:13:03.446Z,99393.02
2022-11-29T03:15:38.791Z,99391.24
2022-11-29T03:18:33.195Z,99390.08
2022-11-29T03:21:24.736Z,99388.36
2022-11-29T03:23:54.963Z,99390.27
2022-11-29T03:26:40.889Z,99390.44
2022-11-29T03:29:30.185Z,99396.16
2022-11-29T03:32:00.202Z,99398.26
2022-11-29T03:35:02.678Z,99399.54
2022-11-29T03:37:46.025Z,99395.46
2022-11-29T03:40:18.093Z,99396.98
2022-11-29T03:42:51.813Z,99399.05
2022-11-29T03:45:30.317Z,99397.38
2022-11-29T03:48:10.276Z,99399.89
2022-11-29T03:50:46.383Z,99401.59
2022-11-29T03:53:33.831Z,99403.52
2022-11-29T03:56:01.553Z,99404.77
2022-11-29T03:58:49.855Z,99405.81
2022-11-29T04:01:22.874Z,99411.30
2022-11-29T04:04:03.027Z,99413.71
2022-11-29T04:06:52.463Z,99420.80
2022-11-29T04:09:41.167Z,99423.23
2022-11-29T04:12:22.584Z,99422.83
2022-11-29T04:14:49.616Z,99421.27
2022-11-29T04:17:19.521Z,99424.89
2022-11-29T04:20:01.940Z,99421.44
2022-11-29T04:22:41.586Z,99423.63
2022-11-29T04:25:11.696Z,99421.93
2022-11-29T04:28:32.335Z,99422.00
2022-11-29T04:30:59.261Z,99424.61
2022-11-29T04:33:53.635Z,99425.94
2022-11-29T04:36:29.881Z,99426.23
2022-11-29T04:39:16.774Z,99430.42
2022-11-29T04:42:20.986Z,99432.53
2022-11-29T04:45:09.926Z,99434.02
2022-11-29T04:48:19.149Z,99433.00
2022-11-29T04:51:14.518Z,99434.82
2022-11-29T04:53:48.777Z,99442.79
2022-11-29T04:56:45.192Z,99441.88
2022-11-29T04:59:50.132Z,99442.67
2022-11-29T05:02:32.524Z,99443.02
2022-11-29T05:05:56.547Z,99446.17
2022-11-29T05:09:05.805Z,99447.71
2022-11-29T05:12:08.459Z,99447.31
2022-11-29T05:14:57.813Z,99451.61
2022-11-29T05:17:31.647Z,99446.97
2022-11-29T05:20:29.669Z,99454.42
2022-11-29T05:23:11.975Z,99453.95
2022-11-29T05:29:53.853Z,99460.61
2022-11-29T05:32:35.609Z,99466.05
2022-11-29T05:35:36.005Z,99469.33
2022-11-29T05:38:07.352Z,99467.98
2022-11-29T05:40:42.071Z,99467.48
2022-11-29T05:43:25.069Z,99467.77
2022-11-29T05:46:17.082Z,99473.36
2022-11-29T05:49:03.752Z,99474.78
2022-11-29T05:51:50.749Z,99478.09
2022-11-29T05:54:31.448Z,99480.98
2022-11-29T05:57:32.044Z,99486.08
2022-11-29T05:59:59.007Z,99490.49
2022-11-29T06:02:54.097Z,99487.60
2022-11-29T06:05:46.907Z,99491.12
2022-11-29T06:08:27.513Z,99494.64
2022-11-29T06:11:02.830Z,99492.09
2022-11-29T06:13:36.325Z,99494.95
2022-11-29T06:16:39.065Z,99493.73
2022-11-29T06:19:45.816Z,99501.24
2022-11-29T06:22:37.859Z,99498.00
2022-11-29T06:25:26.543Z,99500.34
2022-11-29T06:28:24.896Z,99499.56
2022-11-29T06:31:27.780Z,99507.02
2022-11-29T06:34:09.441Z,99506.70
2022-11-29T06:36:36.417Z,99504.08
2022-11-29T06:39:03.656Z,99505.20
2022-11-29T06:41:31.191Z,99502.09
2022-11-29T06:43:58.681Z,99499.71
2022-11-29T16:26:11.941Z,99535.14
2022-11-29T16:28:43.090Z,99533.59
2022-11-29T16:31:12.372Z,99537.59
2022-11-29T16:33:41.779Z,99535.75
2022-11-29T16:36:22.885Z,99532.83
2022-11-29T16:38:54.029Z,99534.48
2022-11-29T16:41:31.814Z,99538.08
2022-11-29T16:43:58.290Z,99538.63
2022-11-29T16:46:26.768Z,99541.99
2022-11-29T16:48:54.248Z,99543.90
2022-11-29T16:51:32.732Z,99547.08
2022-11-29T16:54:21.585Z,99548.48
2022-11-29T16:56:49.150Z,99546.05
2022-11-29T16:59:24.736Z,99545.67
2022-11-29T17:01:55.304Z,99550.38
2022-11-29T17:04:23.857Z,99553.63
2022-11-29T17:06:53.347Z,99550.98
2022-11-29T17:09:22.863Z,99553.67
2022-11-29T17:11:49.205Z,99554.45
2022-11-29T17:14:15.554Z,99554.66
2022-11-29T17:16:42.450Z,99554.23
2022-11-29T17:19:12.381Z,99553.88
2022-11-29T17:21:38.952Z,99556.81
2022-11-29T17:24:05.744Z,99555.08
2022-11-29T17:26:32.041Z,99557.27
2022-11-29T17:28:58.323Z,99557.02
2022-11-29T17:31:24.800Z,99556.86
2022-11-29T17:33:51.641Z,99559.98
2022-11-29T17:36:19.044Z,99560.85
2022-11-29T17:39:04.470Z,99562.52
2022-11-29T17:41:32.206Z,99563.69
2022-11-29T17:43:58.677Z,99566.19
2022-11-29T17:46:25.826Z,99569.60
2022-11-29T17:48:52.487Z,99566.65
2022-11-29T17:51:50.161Z,99568.30
2022-11-29T17:54:08.314Z,99568.89
2022-11-29T17:56:34.763Z,99575.88
2022-11-29T17:59:01.845Z,99577.09
2022-11-29T18:01:30.320Z,99572.63
2022-11-29T18:03:58.476Z,99580.58
2022-11-29T18:06:26.298Z,99584.61
2022-11-29T18:08:53.904Z,99581.77
2022-11-29T18:11:22.432Z,99582.87
2022-11-29T18:13:49.050Z,99586.10
2022-11-29T18:16:17.261Z,99585.73
2022-11-29T18:18:43.943Z,99586.23
2022-11-29T18:21:10.659Z,99588.00
2022-11-29T18:23:38.315Z,99588.38
2022-11-29T18:26:11.946Z,99591.88
2022-11-29T18:28:38.957Z,99592.77
2022-11-29T18:31:09.640Z,99592.77
2022-11-29T18:33:36.509Z,99595.61
2022-11-29T18:36:10.372Z,99591.70
2022-11-29T18:38:37.456Z,99596.15
2022-11-29T18:41:11.929Z,99597.68
2022-11-29T18:43:40.118Z,99596.64
2022-11-29T18:46:10.635Z,99596.60
2022-11-29T18:48:37.130Z,99598.75
2022-11-29T18:51:04.191Z,99597.39
2022-11-29T18:53:32.668Z,99596.55
2022-11-29T18:56:04.104Z,99600.23
2022-11-29T18:58:30.741Z,99599.14
2022-11-29T19:01:08.253Z,99595.86
2022-11-29T19:03:35.954Z,99597.55
2022-11-29T19:06:04.321Z,99599.29
2022-11-29T19:08:30.759Z,99601.02
2022-11-29T19:10:57.399Z,99603.16
2022-11-29T19:13:23.714Z,99602.83
2022-11-29T19:15:53.859Z,99602.04
2022-11-29T19:18:21.211Z,99602.53
2022-11-29T19:20:47.939Z,99601.78
2022-11-29T19:23:15.784Z,99604.83
2022-11-29T19:25:42.467Z,99601.95
2022-11-29T19:28:13.861Z,99597.29
2022-11-29T19:30:40.859Z,99601.79
2022-11-29T19:33:07.213Z,99601.05
2022-11-29T19:35:34.068Z,99604.88
2022-11-29T19:38:00.401Z,99607.25
2022-11-29T19:40:27.399Z,99614.54
2022-11-29T19:42:53.672Z,99617.97
2022-11-29T19:45:21.230Z,99617.91
2022-11-29T19:47:47.571Z,99620.60
2022-11-29T19:50:13.961Z,99619.20
2022-11-29T19:52:40.214Z,99623.05
2022-11-29T19:55:06.761Z,99616.11
2022-11-29T19:57:33.205Z,99615.66
2022-11-29T19:59:59.601Z,99617.65
2022-11-29T20:02:25.993Z,99616.29
2022-11-29T20:04:52.480Z,99620.52
2022-11-29T20:07:18.746Z,99623.13
2022-11-29T20:09:45.830Z,99621.23
2022-11-29T20:12:12.601Z,99622.35
2022-11-29T20:14:38.961Z,99627.73
2022-11-29T20:17:05.469Z,99628.91
2022-11-29T20:19:31.713Z,99630.55
2022-11-29T20:21:58.100Z,99626.77
2022-11-29T20:24:24.329Z,99628.17
2022-11-29T20:27:02.463Z,99625.93
2022-11-29T20:29:30.098Z,99623.12
2022-11-29T20:31:56.530Z,99623.48
2022-11-29T20:34:23.345Z,99625.43
2022-11-29T20:37:05.101Z,99619.41
2022-11-29T20:39:36.818Z,99620.29
2022-11-29T20:42:09.280Z,99619.22
2022-11-29T20:44:37.388Z,99620.25
2022-11-29T20:47:17.455Z,99620.08
2022-11-29T20:49:44.318Z,99618.08
2022-11-29T20:52:22.269Z,99621.85
2022-11-29T20:54:48.449Z,99623.60
2022-11-29T20:57:14.746Z,99624.05
2022-11-29T20:59:41.286Z,99620.42
2022-11-29T21:02:07.593Z,99624.80
2022-11-29T21:04:33.947Z,99625.23
2022-11-29T21:07:00.350Z,99618.16
2022-11-29T21:09:28.531Z,99617.17
2022-11-29T21:11:55.158Z,99620.11
2022-11-29T21:14:21.848Z,99613.92
2022-11-29T21:16:48.714Z,99612.05
2022-11-29T21:19:18.985Z,99610.73
2022-11-29T21:22:02.818Z,99613.27
2022-11-29T21:24:55.566Z,99612.15
2022-11-29T21:27:28.192Z,99609.90
2022-11-29T21:29:55.203Z,99610.41
2022-11-29T21:32:23.364Z,99611.97
2022-11-29T21:34:49.695Z,99616.39
2022-11-29T21:37:17.101Z,99616.85
2022-11-29T21:39:43.491Z,99611.02
2022-11-29T21:42:10.173Z,99612.08
2022-11-29T21:44:36.496Z,99608.27
2022-11-29T21:47:02.864Z,99610.05
2022-11-29T21:49:30.241Z,99609.71
2022-11-29T21:51:59.434Z,99604.16
2022-11-29T21:54:25.966Z,99601.55
2022-11-29T21:56:52.576Z,99600.63
2022-11-29T21:59:19.224Z,99601.63
2022-11-29T22:01:49.335Z,99598.64
2022-11-29T22:04:16.241Z,99601.16
2022-11-29T22:06:42.515Z,99597.40
2022-11-29T22:09:09.513Z,99596.39
2022-11-29T22:11:36.248Z,99589.55
2022-11-29T22:14:13.560Z,99591.35
2022-11-29T22:16:41.644Z,99595.52
2022-11-29T22:19:08.581Z,99595.34
2022-11-29T22:21:34.993Z,99593.20
2022-11-29T22:24:01.241Z,99594.55
2022-11-29T22:26:28.208Z,99596.39
2022-11-29T22:28:54.797Z,99596.69
2022-11-29T22:31:21.366Z,99591.14
2022-11-29T22:33:47.755Z,99588.48
2022-11-29T22:36:14.221Z,99590.54
2022-11-29T22:38:40.469Z,99590.27
2022-11-29T22:41:13.001Z,99590.83
2022-11-29T22:43:39.825Z,99588.66
2022-11-29T22:46:20.226Z,99587.17
2022-11-29T22:48:47.665Z,99583.61
2022-11-29T22:51:15.807Z,99587.62
2022-11-29T22:53:48.468Z,99588.20
2022-11-29T22:56:17.054Z,99588.25
2022-11-29T22:58:44.741Z,99587.97
2022-11-29T23:01:15.901Z,99590.27
2022-11-29T23:03:43.430Z,99582.61
2022-11-29T23:06:11.826Z,99580.29
2022-11-29T23:08:38.360Z,99582.79
2022-11-29T23:11:05.506Z,99581.41
2022-11-29T23:13:36.238Z,99583.27
2022-11-29T23:16:03.453Z,99579.42
2022-11-29T23:18:30.006Z,99581.25
2022-11-29T23:21:03.940Z,99574.74
2022-11-29T23:23:30.443Z,99579.64
2022-11-29T23:25:56.735Z,99578.05
2022-11-29T23:28:23.820Z,99573.73
2022-11-29T23:30:50.581Z,99579.98
2022-11-29T23:33:16.891Z,99574.30
2022-11-29T23:35:43.409Z,99574.98
2022-11-29T23:38:09.706Z,99572.80
2022-11-29T23:40:36.006Z,99568.09
2022-11-29T23:43:02.555Z,99570.41
2022-11-29T23:45:28.952Z,99562.08
2022-11-29T23:47:55.646Z,99562.92
2022-11-29T23:50:22.736Z,99563.91
2022-11-29T23:52:55.410Z,99565.38
2022-11-29T23:55:22.257Z,99568.26
2022-11-29T23:57:48.731Z,99567.54
